createdAt,value
2023-02-24T00:01:25.008Z,96421.28
2023-02-24T00:03:29.122Z,96421.13
2023-02-24T00:05:36.597Z,96418.66
2023-02-24T00:07:40.631Z,96413.44
2023-02-24T00:09:45.465Z,96410.69
2023-02-24T00:11:55.424Z,96413.44
2023-02-24T00:13:59.900Z,96411.50
2023-02-24T00:16:06.098Z,96414.94
2023-02-24T00:18:10.474Z,96410.53
2023-02-24T00:20:16.451Z,96407.56
2023-02-24T00:22:20.474Z,96403.34
2023-02-24T00:24:25.323Z,96401.53
2023-02-24T00:26:30.129Z,96402.34
2023-02-24T00:28:35.556Z,96403.34
2023-02-24T00:30:39.938Z,96396.31
2023-02-24T00:32:44.024Z,96398.13
2023-02-24T00:34:49.615Z,96400.75
2023-02-24T00:36:53.605Z,96402.34
2023-02-24T00:38:58.518Z,96394.53
2023-02-24T00:41:04.008Z,96397.13
2023-02-24T00:43:08.865Z,96400.38
2023-02-24T00:45:16.671Z,96390.16
2023-02-24T00:47:22.417Z,96391.75
2023-02-24T00:49:26.451Z,96383.13
2023-02-24T00:51:30.831Z,96388.34
2023-02-24T00:53:34.860Z,96383.13
2023-02-24T00:55:38.845Z,96380.34
2023-02-24T00:57:42.904Z,96376.09
2023-02-24T00:59:48.440Z,96378.56
2023-02-24T01:01:54.867Z,96381.16
2023-02-24T01:03:59.962Z,96378.56
2023-02-24T01:06:04.293Z,96381.00
2023-02-24T01:08:08.275Z,96381.00
2023-02-24T01:10:13.121Z,96382.63
2023-02-24T01:12:33.935Z,96381.63
2023-02-24T01:14:39.692Z,96381.47
2023-02-24T01:16:44.645Z,96380.66
2023-02-24T01:18:50.035Z,96378.03
2023-02-24T01:20:54.137Z,96374.63
2023-02-24T01:22:58.632Z,96376.25
2023-02-24T01:25:02.762Z,96374.28
2023-02-24T01:27:06.904Z,96371.03
2023-02-24T01:29:12.459Z,96376.88
2023-02-24T01:31:18.379Z,96376.25
2023-02-24T01:33:23.057Z,96378.69
2023-02-24T01:35:28.469Z,96369.88
2023-02-24T01:37:32.924Z,96377.53
2023-02-24T01:39:37.670Z,96374.75
2023-02-24T01:41:43.780Z,96379.16
2023-02-24T01:44:01.859Z,96375.56
2023-02-24T01:46:06.536Z,96377.66
2023-02-24T01:48:10.971Z,96368.38
2023-02-24T01:50:16.126Z,96361.56
2023-02-24T01:52:24.150Z,96363.16
2023-02-24T01:54:29.638Z,96358.59
2023-02-24T01:56:33.774Z,96367.41
2023-02-24T01:58:37.959Z,96361.84
2023-02-24T02:00:47.630Z,96365.59
2023-02-24T02:02:52.878Z,96358.59
2023-02-24T02:04:58.802Z,96363.66
2023-02-24T02:07:03.934Z,96367.88
2023-02-24T02:09:10.839Z,96359.22
2023-02-24T02:11:22.541Z,96361.84
2023-02-24T02:13:28.223Z,96366.91
2023-02-24T02:15:32.331Z,96361.50
2023-02-24T02:17:41.814Z,96362.13
2023-02-24T02:20:15.404Z,96359.72
2023-02-24T02:23:01.930Z,96355.59
2023-02-24T02:25:10.521Z,96354.78
2023-02-24T02:27:57.983Z,96350.88
2023-02-24T02:30:33.885Z,96352.53
2023-02-24T02:33:01.846Z,96356.09
2023-02-24T02:35:09.214Z,96356.75
2023-02-24T02:37:15.825Z,96350.88
2023-02-24T02:39:26.708Z,96356.28
2023-02-24T02:41:31.841Z,96351.69
2023-02-24T02:43:39.430Z,96357.91
2023-02-24T02:45:47.703Z,96351.69
2023-02-24T02:47:53.886Z,96359.84
2023-02-24T02:50:00.631Z,96351.19
2023-02-24T02:52:10.381Z,96354.41
2023-02-24T02:54:19.111Z,96353.97
2023-02-24T02:56:25.575Z,96361.63
2023-02-24T02:58:32.847Z,96350.19
2023-02-24T03:00:42.029Z,96350.88
2023-02-24T03:02:48.387Z,96355.28
2023-02-24T03:04:53.959Z,96357.38
2023-02-24T03:07:00.723Z,96361.44
2023-02-24T03:09:12.294Z,96356.22
2023-02-24T03:11:16.970Z,96351.81
2023-02-24T03:13:22.600Z,96356.91
2023-02-24T03:15:28.516Z,96360.97
2023-02-24T03:17:41.331Z,96359.81
2023-02-24T03:19:45.315Z,96348.56
2023-02-24T03:21:52.741Z,96346.78
2023-02-24T03:23:56.869Z,96352.50
2023-02-24T03:26:08.952Z,96349.38
2023-02-24T03:28:17.500Z,96346.13
2023-02-24T03:30:26.998Z,96346.94
2023-02-24T03:32:34.050Z,96344.66
2023-02-24T03:34:42.932Z,96347.59
2023-02-24T03:36:47.570Z,96341.72
2023-02-24T03:38:52.666Z,96345.13
2023-02-24T03:40:57.314Z,96349.56
2023-02-24T03:43:08.991Z,96348.22
2023-02-24T03:45:13.097Z,96343.34
2023-02-24T03:47:20.372Z,96347.41
2023-02-24T03:49:25.399Z,96347.22
2023-02-24T03:51:29.504Z,96341.38
2023-02-24T03:53:39.073Z,96348.22
2023-02-24T03:55:58.742Z,96345.78
2023-02-24T03:58:12.995Z,96355.25
2023-02-24T04:00:22.840Z,96343.00
2023-02-24T04:02:32.753Z,96344.16
2023-02-24T04:04:41.648Z,96339.59
2023-02-24T04:07:06.805Z,96328.78
2023-02-24T04:09:15.526Z,96326.66
2023-02-24T04:11:31.778Z,96327.97
2023-02-24T04:13:39.980Z,96324.25
2023-02-24T04:15:56.465Z,96323.84
2023-02-24T04:18:02.281Z,96327.97
2023-02-24T04:20:15.437Z,96331.28
2023-02-24T04:22:24.670Z,96332.84
2023-02-24T04:24:31.089Z,96330.59
2023-02-24T04:26:36.474Z,96326.66
2023-02-24T04:28:42.240Z,96322.25
2023-02-24T04:30:49.397Z,96316.53
2023-02-24T04:32:53.556Z,96314.94
2023-02-24T04:35:04.784Z,96314.94
2023-02-24T04:37:10.169Z,96310.88
2023-02-24T04:39:16.425Z,96308.72
2023-02-24T04:41:22.990Z,96303.69
2023-02-24T04:43:27.309Z,96302.84
2023-02-24T04:45:32.848Z,96296.66
2023-02-24T04:47:37.210Z,96297.84
2023-02-24T04:49:41.978Z,96290.00
2023-02-24T04:51:46.667Z,96289.00
2023-02-24T04:53:55.334Z,96291.44
2023-02-24T04:56:08.050Z,96290.28
2023-02-24T04:58:12.576Z,96288.38
2023-02-24T05:00:22.368Z,96286.41
2023-02-24T05:02:27.814Z,96282.44
2023-02-24T05:04:31.967Z,96286.03
2023-02-24T05:06:36.125Z,96277.75
2023-02-24T05:08:40.795Z,96281.91
2023-02-24T05:10:45.676Z,96281.91
2023-02-24T05:12:50.364Z,96284.19
2023-02-24T05:14:54.706Z,96285.97
2023-02-24T05:17:00.435Z,96278.63
2023-02-24T05:19:23.220Z,96274.41
2023-02-24T05:21:36.464Z,96270.50
2023-02-24T05:23:44.225Z,96272.81
2023-02-24T05:25:48.562Z,96266.44
2023-02-24T05:27:52.565Z,96257.97
2023-02-24T05:29:56.808Z,96251.41
2023-02-24T05:32:01.206Z,96258.09
2023-02-24T05:34:08.073Z,96257.66
2023-02-24T05:36:15.667Z,96258.31
2023-02-24T05:38:20.487Z,96255.44
2023-02-24T05:40:25.341Z,96250.91
2023-02-24T05:42:34.460Z,96246.41
2023-02-24T05:44:38.626Z,96240.25
2023-02-24T05:46:44.547Z,96241.44
2023-02-24T05:48:52.020Z,96235.25
2023-02-24T05:50:57.500Z,96241.25
2023-02-24T05:53:03.323Z,96238.75
2023-02-24T05:55:13.989Z,96241.53
2023-02-24T05:57:20.355Z,96232.50
2023-02-24T05:59:24.402Z,96242.91
2023-02-24T06:01:30.264Z,96241.63
2023-02-24T06:03:35.648Z,96241.75
2023-02-24T06:05:42.651Z,96239.50
2023-02-24T06:07:49.164Z,96231.75
2023-02-24T06:09:56.427Z,96236.63
2023-02-24T06:12:02.529Z,96236.28
2023-02-24T06:14:07.282Z,96232.75
2023-02-24T06:16:13.134Z,96232.13
2023-02-24T06:18:17.423Z,96234.28
2023-02-24T06:20:22.219Z,96234.44
2023-02-24T06:22:27.105Z,96243.91
2023-02-24T06:24:33.590Z,96257.34
2023-02-24T06:26:43.296Z,96238.41
2023-02-24T06:28:48.049Z,96235.56
2023-02-24T06:30:52.260Z,96235.03
2023-02-24T06:32:57.195Z,96229.81
2023-02-24T06:35:01.779Z,96237.16
2023-02-24T06:37:07.193Z,96232.75
2023-02-24T06:39:14.485Z,96239.41
2023-02-24T06:41:20.378Z,96239.75
2023-02-24T06:43:24.597Z,96243.63
2023-02-24T06:45:30.487Z,96242.94
2023-02-24T06:47:34.535Z,96241.25
2023-02-24T06:49:38.583Z,96234.38
2023-02-24T06:51:43.482Z,96243.22
2023-02-24T06:53:47.543Z,96238.00
2023-02-24T06:55:51.831Z,96239.78
2023-02-24T06:57:58.731Z,96237.47
2023-02-24T07:00:16.926Z,96241.69
2023-02-24T07:02:21.005Z,96237.38
2023-02-24T07:04:28.233Z,96238.97
2023-02-24T07:06:34.430Z,96237.72
2023-02-24T07:08:39.100Z,96231.16
2023-02-24T07:10:43.390Z,96231.94
2023-02-24T07:12:47.485Z,96230.94
2023-02-24T07:14:53.237Z,96230.25
2023-02-24T07:16:58.238Z,96225.38
2023-02-24T07:19:04.446Z,96218.81
2023-02-24T07:21:11.525Z,96221.16
2023-02-24T07:23:15.769Z,96221.31
2023-02-24T07:25:33.116Z,96221.25
2023-02-24T07:27:37.358Z,96224.66
2023-02-24T07:29:41.446Z,96222.44
2023-02-24T07:31:48.828Z,96219.81
2023-02-24T07:33:55.639Z,96214.84
2023-02-24T07:35:59.941Z,96218.81
2023-02-24T07:38:05.576Z,96215.84
2023-02-24T07:40:17.208Z,96203.13
2023-02-24T07:42:21.252Z,96173.50
2023-02-24T07:44:33.020Z,96173.78
2023-02-24T07:46:37.188Z,96174.41
2023-02-24T07:48:42.865Z,96165.38
2023-02-24T07:50:46.881Z,96175.03
2023-02-24T07:52:51.672Z,96167.28
2023-02-24T07:54:58.590Z,96174.88
2023-02-24T07:57:28.889Z,96195.75
2023-02-24T07:59:34.551Z,96193.78
2023-02-24T08:01:39.971Z,96188.47
2023-02-24T08:03:45.826Z,96189.66
2023-02-24T08:05:49.960Z,96186.41
2023-02-24T08:07:57.045Z,96181.69
2023-02-24T08:10:24.404Z,96183.78
2023-02-24T08:12:30.604Z,96178.66
2023-02-24T08:14:35.024Z,96172.97
2023-02-24T08:16:40.619Z,96173.13
2023-02-24T08:18:48.950Z,96175.22
2023-02-24T08:21:04.677Z,96177.09
2023-02-24T08:23:10.803Z,96173.50
2023-02-24T08:25:18.493Z,96171.88
2023-02-24T08:27:25.770Z,96172.41
2023-02-24T08:29:31.443Z,96169.19
2023-02-24T08:31:35.686Z,96175.94
2023-02-24T08:33:39.796Z,96173.44
2023-02-24T08:35:45.568Z,96180.25
2023-02-24T08:37:52.118Z,96177.19
2023-02-24T08:39:56.640Z,96172.25
2023-02-24T08:42:00.625Z,96169.81
2023-02-24T08:44:04.825Z,96159.81
2023-02-24T08:46:19.229Z,96160.38
2023-02-24T08:48:32.413Z,96166.56
2023-02-24T08:50:39.947Z,96161.50
2023-02-24T08:53:03.805Z,96151.81
2023-02-24T08:55:10.619Z,96161.88
2023-02-24T08:57:16.861Z,96155.50
2023-02-24T08:59:49.995Z,96165.31
2023-02-24T09:02:04.296Z,96160.78
2023-02-24T09:04:10.749Z,96154.78
2023-02-24T09:06:16.860Z,96149.84
2023-02-24T09:08:24.086Z,96144.06
2023-02-24T09:10:28.532Z,96138.94
2023-02-24T09:12:32.731Z,96140.03
2023-02-24T09:14:37.809Z,96139.47
2023-02-24T09:16:52.381Z,96136.84
2023-02-24T09:19:10.277Z,96120.88
2023-02-24T09:21:37.604Z,96134.88
2023-02-24T09:23:50.623Z,96134.25
2023-02-24T09:26:14.308Z,96135.22
2023-02-24T09:28:48.544Z,96129.44
2023-02-24T09:30:56.395Z,96129.44
2023-02-24T09:33:02.102Z,96132.13
2023-02-24T09:35:06.635Z,96123.06
2023-02-24T09:37:24.786Z,96121.25
2023-02-24T09:39:54.700Z,96115.94
2023-02-24T09:42:21.761Z,96109.19
2023-02-24T09:44:33.955Z,96105.59
2023-02-24T09:46:53.859Z,96107.03
2023-02-24T09:49:05.288Z,96108.63
2023-02-24T09:51:10.518Z,96104.78
2023-02-24T09:53:18.561Z,96097.75
2023-02-24T09:55:30.228Z,96098.72
2023-02-24T09:57:37.519Z,96097.22
2023-02-24T10:04:35.300Z,96086.13
2023-02-24T10:06:41.623Z,96074.94
2023-02-24T10:08:51.338Z,96078.28
2023-02-24T10:30:17.173Z,96052.34
2023-02-24T10:32:47.037Z,96041.53
2023-02-24T10:34:51.489Z,96046.56
2023-02-24T10:36:57.505Z,96047.19
2023-02-24T10:39:08.421Z,96044.69
2023-02-24T10:41:12.678Z,96041.47
2023-02-24T10:43:19.510Z,96044.69
2023-02-24T10:45:26.056Z,96041.16
2023-02-24T10:47:31.901Z,96048.13
2023-02-24T10:49:42.926Z,96041.31
2023-02-24T10:51:54.677Z,96033.75
2023-02-24T10:54:34.009Z,96032.66
2023-02-24T10:56:44.692Z,96027.81
2023-02-24T10:59:17.177Z,96023.69
2023-02-24T11:01:40.596Z,96021.03
2023-02-24T11:04:54.947Z,96011.53
2023-02-24T11:07:25.863Z,96008.44
2023-02-24T11:10:11.349Z,96012.84
2023-02-24T11:12:38.726Z,95999.88
2023-02-24T11:17:50.979Z,95988.78
2023-02-24T11:23:09.993Z,95976.66
2023-02-24T11:25:25.024Z,95960.09
2023-02-24T11:28:26.415Z,95953.75
2023-02-24T11:30:43.882Z,95951.69
2023-02-24T11:33:00.054Z,95947.69
2023-02-24T11:35:09.466Z,95936.53
2023-02-24T11:37:29.807Z,95935.06
2023-02-24T11:40:42.248Z,95934.22
2023-02-24T11:42:52.117Z,95922.25
2023-02-24T11:45:00.935Z,95927.53
2023-02-24T11:47:07.432Z,95920.09
2023-02-24T11:49:22.819Z,95908.44
2023-02-24T11:51:29.472Z,95907.41
2023-02-24T11:53:41.144Z,95896.09
2023-02-24T11:56:12.409Z,95893.25
2023-02-24T11:59:07.366Z,95896.59
2023-02-24T12:01:15.949Z,95891.00
2023-02-24T12:03:26.615Z,95889.22
2023-02-24T12:05:37.100Z,95879.13
2023-02-24T12:08:07.013Z,95876.81
2023-02-24T12:14:53.616Z,95861.25
2023-02-24T12:19:33.237Z,95849.84
2023-02-24T12:21:39.948Z,95847.91
2023-02-24T12:23:46.577Z,95852.47
2023-02-24T12:29:21.965Z,95842.72
2023-02-24T12:31:57.316Z,95829.59
2023-02-24T12:42:08.834Z,95817.09
2023-02-24T12:44:24.245Z,95799.38
2023-02-24T12:47:43.575Z,95804.16
2023-02-24T12:51:42.869Z,95796.75
2023-02-24T12:57:51.537Z,95791.72
2023-02-24T12:59:57.966Z,95770.66
2023-02-24T13:02:07.482Z,95779.16
2023-02-24T13:04:38.573Z,95767.28
2023-02-24T13:06:58.143Z,95768.47
2023-02-24T13:09:06.036Z,95763.25
2023-02-24T13:11:16.362Z,95759.25
2023-02-24T13:13:24.742Z,95759.50
2023-02-24T13:15:31.347Z,95758.47
2023-02-24T13:17:35.345Z,95748.19
2023-02-24T13:19:41.426Z,95748.44
2023-02-24T13:21:45.446Z,95743.03
2023-02-24T13:23:57.425Z,95737.38
2023-02-24T13:26:33.806Z,95742.75
2023-02-24T13:28:44.777Z,95734.09
2023-02-24T13:30:59.239Z,95728.72
2023-02-24T13:33:07.168Z,95725.84
2023-02-24T13:35:35.173Z,95725.03
2023-02-24T13:37:40.500Z,95730.44
2023-02-24T13:39:46.393Z,95729.34
2023-02-24T13:41:50.701Z,95728.84
2023-02-24T13:43:57.913Z,95724.56
2023-02-24T13:46:03.522Z,95723.78
2023-02-24T13:48:43.963Z,95722.22
2023-02-24T13:51:05.511Z,95714.97
2023-02-24T13:53:33.273Z,95712.38
2023-02-24T13:55:58.642Z,95715.78
2023-02-24T13:58:29.944Z,95706.63
2023-02-24T14:01:15.559Z,95712.38
2023-02-24T14:03:32.061Z,95700.94
2023-02-24T14:05:37.819Z,95704.53
2023-02-24T14:07:43.629Z,95709.75
2023-02-24T14:09:49.661Z,95704.75
2023-02-24T14:16:09.222Z,95695.66
2023-02-24T14:18:19.941Z,95690.47
2023-02-24T14:20:25.649Z,95680.03
2023-02-24T14:22:29.617Z,95679.81
2023-02-24T14:24:35.183Z,95686.66
2023-02-24T14:26:44.094Z,95688.88
2023-02-24T14:33:42.131Z,95677.97
2023-02-24T14:35:51.832Z,95677.00
2023-02-24T14:38:07.137Z,95687.44
2023-02-24T14:40:40.822Z,95681.78
2023-02-24T14:42:55.734Z,95674.31
2023-02-24T14:45:00.277Z,95670.53
2023-02-24T14:47:06.580Z,95680.16
2023-02-24T14:56:57.384Z,95697.00
2023-02-24T14:59:03.304Z,95691.16
2023-02-24T15:01:08.761Z,95689.97
2023-02-24T15:03:15.484Z,95683.31
2023-02-24T15:09:48.040Z,95678.56
2023-02-24T15:13:10.778Z,95678.59
2023-02-24T15:15:40.277Z,95679.03
2023-02-24T15:17:44.498Z,95684.59
2023-02-24T15:19:54.658Z,95686.47
2023-02-24T15:21:59.167Z,95671.53
2023-02-24T15:24:04.379Z,95673.56
2023-02-24T15:26:09.632Z,95678.81
2023-02-24T15:28:31.103Z,95674.19
2023-02-24T15:30:57.360Z,95660.94
2023-02-24T15:33:06.963Z,95663.88
2023-02-24T15:35:23.087Z,95658.72
2023-02-24T15:37:30.011Z,95664.09
2023-02-24T15:39:34.746Z,95667.53
2023-02-24T15:41:41.102Z,95657.53
2023-02-24T15:43:50.189Z,95660.59
2023-02-24T15:46:27.130Z,95667.97
2023-02-24T15:48:31.607Z,95665.94
2023-02-24T15:50:35.661Z,95664.28
2023-02-24T15:52:51.873Z,95663.22
2023-02-24T15:54:56.602Z,95667.69
2023-02-24T15:57:00.958Z,95663.22
2023-02-24T15:59:41.730Z,95668.28
2023-02-24T16:01:53.626Z,95672.72
2023-02-24T16:04:00.803Z,95669.06
2023-02-24T16:06:34.125Z,95664.44
2023-02-24T16:12:50.498Z,95657.41
2023-02-24T16:14:56.809Z,95646.34
2023-02-24T16:17:03.251Z,95646.00
2023-02-24T16:19:07.300Z,95643.81
2023-02-24T16:21:11.456Z,95642.97
2023-02-24T16:23:15.821Z,95649.38
2023-02-24T16:25:19.985Z,95649.75
2023-02-24T16:27:25.984Z,95651.56
2023-02-24T16:29:30.085Z,95644.19
2023-02-24T16:31:34.347Z,95656.25
2023-02-24T16:33:53.547Z,95653.22
2023-02-24T16:35:58.347Z,95643.19
2023-02-24T16:38:02.479Z,95642.22
2023-02-24T16:40:17.114Z,95643.84
2023-02-24T16:42:22.004Z,95641.38
2023-02-24T16:44:26.127Z,95642.63
2023-02-24T16:46:30.522Z,95640.16
2023-02-24T16:48:37.383Z,95641.75
2023-02-24T16:50:43.828Z,95640.34
2023-02-24T16:52:47.858Z,95645.34
2023-02-24T16:54:51.949Z,95643.16
2023-02-24T16:56:56.131Z,95641.31
2023-02-24T16:59:00.131Z,95629.84
2023-02-24T17:01:05.263Z,95641.50
2023-02-24T17:03:19.470Z,95634.66
2023-02-24T17:05:27.116Z,95638.31
2023-02-24T17:07:39.145Z,95632.72
2023-02-24T17:09:43.186Z,95634.28
2023-02-24T17:11:47.154Z,95637.69
2023-02-24T17:13:51.216Z,95638.09
2023-02-24T17:16:00.177Z,95633.91
2023-02-24T17:18:06.369Z,95646.34
2023-02-24T17:20:12.982Z,95639.69
2023-02-24T17:22:17.642Z,95638.47
2023-02-24T17:24:23.209Z,95632.06
2023-02-24T17:26:27.278Z,95634.50
2023-02-24T17:28:31.470Z,95633.13
2023-02-24T17:30:36.360Z,95627.06
2023-02-24T17:32:40.491Z,95629.28
2023-02-24T17:34:44.591Z,95626.66
2023-02-24T17:36:48.915Z,95631.72
2023-02-24T17:38:53.041Z,95631.47
2023-02-24T17:40:58.476Z,95633.84
2023-02-24T17:43:02.432Z,95626.47
2023-02-24T17:45:07.962Z,95631.72
2023-02-24T17:47:12.290Z,95635.50
2023-02-24T17:49:16.326Z,95639.72
2023-02-24T17:51:22.364Z,95635.88
2023-02-24T17:53:26.883Z,95644.91
2023-02-24T17:55:30.941Z,95636.91
2023-02-24T17:57:36.411Z,95634.28
2023-02-24T17:59:40.425Z,95629.69
2023-02-24T18:01:44.402Z,95631.28
2023-02-24T18:03:48.587Z,95633.34
2023-02-24T18:06:00.133Z,95630.94
2023-02-24T18:08:04.271Z,95636.94
2023-02-24T18:10:12.430Z,95646.19
2023-02-24T18:12:20.807Z,95639.94
2023-02-24T18:14:26.322Z,95641.31
2023-02-24T18:16:32.820Z,95636.25
2023-02-24T18:18:36.872Z,95626.25
2023-02-24T18:20:43.310Z,95623.66
2023-02-24T18:22:47.746Z,95635.09
2023-02-24T18:24:51.880Z,95629.09
2023-02-24T18:26:55.851Z,95614.19
2023-02-24T18:29:01.445Z,95612.00
2023-02-24T18:31:13.173Z,95634.78
2023-02-24T18:33:17.304Z,95630.75
2023-02-24T18:35:21.980Z,95659.69
2023-02-24T18:37:26.317Z,95648.59
2023-02-24T18:39:30.562Z,95640.59
2023-02-24T18:41:34.563Z,95632.94
2023-02-24T18:43:38.649Z,95645.38
2023-02-24T18:45:42.632Z,95639.75
2023-02-24T18:47:48.037Z,95651.22
2023-02-24T18:49:52.022Z,95656.00
2023-02-24T18:51:56.025Z,95655.81
2023-02-24T18:54:00.348Z,95650.00
2023-02-24T18:56:05.142Z,95635.88
2023-02-24T18:58:09.108Z,95642.16
2023-02-24T19:00:15.165Z,95640.34
2023-02-24T19:02:19.538Z,95646.75
2023-02-24T19:04:25.065Z,95635.72
2023-02-24T19:06:31.622Z,95651.09
2023-02-24T19:08:35.662Z,95655.25
2023-02-24T19:10:40.423Z,95667.50
2023-02-24T19:12:44.488Z,95669.06
2023-02-24T19:14:52.067Z,95678.72
2023-02-24T19:16:56.061Z,95673.69
2023-02-24T19:19:00.823Z,95670.09
2023-02-24T19:21:08.255Z,95666.06
2023-02-24T19:23:12.250Z,95658.22
2023-02-24T19:25:16.541Z,95655.97
2023-02-24T19:27:20.520Z,95635.72
2023-02-24T19:29:26.409Z,95638.94
2023-02-24T19:31:32.992Z,95635.94
2023-02-24T19:33:37.073Z,95639.53
2023-02-24T19:35:41.801Z,95642.97
2023-02-24T19:37:48.809Z,95641.53
2023-02-24T19:39:52.811Z,95641.72
2023-02-24T19:41:57.521Z,95646.34
2023-02-24T19:44:01.532Z,95638.72
2023-02-24T19:46:07.163Z,95634.91
2023-02-24T19:48:11.419Z,95639.81
2023-02-24T19:50:15.853Z,95645.72
2023-02-24T19:52:19.840Z,95650.16
2023-02-24T19:54:25.229Z,95642.56
2023-02-24T19:56:30.563Z,95634.09
2023-02-24T19:58:34.644Z,95638.50
2023-02-24T20:00:38.621Z,95651.34
2023-02-24T20:02:42.737Z,95649.97
2023-02-24T20:04:46.777Z,95649.16
2023-02-24T20:06:51.192Z,95654.53
2023-02-24T20:08:55.533Z,95655.94
2023-02-24T20:11:01.641Z,95654.16
2023-02-24T20:13:07.744Z,95649.38
2023-02-24T20:15:13.626Z,95647.34
2023-02-24T20:17:18.540Z,95653.19
2023-02-24T20:19:23.696Z,95651.19
2023-02-24T20:21:27.832Z,95646.00
2023-02-24T20:23:33.342Z,95642.56
2023-02-24T20:25:37.433Z,95644.13
2023-02-24T20:27:42.865Z,95648.28
2023-02-24T20:29:47.443Z,95662.38
2023-02-24T20:31:51.678Z,95658.97
2023-02-24T20:33:56.435Z,95664.72
2023-02-24T20:36:00.573Z,95655.28
2023-02-24T20:38:04.689Z,95653.31
2023-02-24T20:40:12.481Z,95648.25
2023-02-24T20:42:16.622Z,95644.25
2023-02-24T20:44:22.143Z,95651.88
2023-02-24T20:46:27.679Z,95661.50
2023-02-24T20:48:31.843Z,95660.56
2023-02-24T20:50:36.002Z,95654.53
2023-02-24T20:52:40.334Z,95653.53
2023-02-24T20:54:45.714Z,95660.34
2023-02-24T20:56:49.921Z,95662.50
2023-02-24T20:58:59.828Z,95671.31
2023-02-24T21:01:05.677Z,95671.94
2023-02-24T21:03:12.268Z,95667.13
2023-02-24T21:05:20.394Z,95678.34
2023-02-24T21:07:24.551Z,95688.19
2023-02-24T21:09:28.825Z,95684.78
2023-02-24T21:11:33.076Z,95689.81
2023-02-24T21:13:37.241Z,95691.63
2023-02-24T21:15:41.310Z,95689.00
2023-02-24T21:17:46.800Z,95687.38
2023-02-24T21:19:50.822Z,95683.78
2023-02-24T21:21:54.884Z,95679.56
2023-02-24T21:23:58.993Z,95678.94
2023-02-24T21:26:03.126Z,95682.34
2023-02-24T21:28:07.152Z,95678.94
2023-02-24T21:30:13.009Z,95677.94
2023-02-24T21:32:17.116Z,95673.91
2023-02-24T21:34:22.707Z,95679.72
2023-02-24T21:36:28.013Z,95680.34
2023-02-24T21:38:33.997Z,95683.78
2023-02-24T21:40:38.207Z,95682.78
2023-02-24T21:42:44.439Z,95686.16
2023-02-24T21:44:50.957Z,95688.75
2023-02-24T21:46:55.588Z,95689.78
2023-02-24T21:49:00.980Z,95689.56
2023-02-24T21:51:09.435Z,95697.59
2023-02-24T21:53:14.092Z,95702.00
2023-02-24T21:55:19.220Z,95708.22
2023-02-24T21:57:23.228Z,95706.59
2023-02-24T21:59:27.444Z,95698.22
2023-02-24T22:01:33.721Z,95678.88
2023-02-24T22:03:38.101Z,95679.69
2023-02-24T22:05:42.176Z,95674.47
2023-02-24T22:07:48.114Z,95675.47
2023-02-24T22:09:52.139Z,95665.22
2023-02-24T22:11:57.153Z,95680.09
2023-02-24T22:14:01.273Z,95693.31
2023-02-24T22:16:07.267Z,95712.19
2023-02-24T22:18:11.357Z,95718.44
2023-02-24T22:20:16.177Z,95725.88
2023-02-24T22:22:20.259Z,95721.63
2023-02-24T22:24:25.696Z,95708.78
2023-02-24T22:26:30.274Z,95703.56
2023-02-24T22:28:35.053Z,95710.59
2023-02-24T22:30:39.389Z,95713.00
2023-02-24T22:32:43.608Z,95705.16
2023-02-24T22:34:47.651Z,95707.78
2023-02-24T22:36:51.785Z,95704.19
2023-02-24T22:38:56.551Z,95716.63
2023-02-24T22:41:02.703Z,95719.22
2023-02-24T22:43:07.460Z,95716.81
2023-02-24T22:45:12.039Z,95726.44
2023-02-24T22:47:16.857Z,95722.03
2023-02-24T22:49:21.029Z,95713.41
2023-02-24T22:51:25.537Z,95720.22
2023-02-24T22:53:30.153Z,95720.44
2023-02-24T22:55:34.182Z,95730.66
2023-02-24T22:57:39.623Z,95720.22
2023-02-24T22:59:43.793Z,95722.81
2023-02-24T23:01:47.942Z,95724.19
2023-02-24T23:03:52.180Z,95725.03
2023-02-24T23:05:56.652Z,95724.00
2023-02-24T23:08:03.339Z,95722.19
2023-02-24T23:10:08.467Z,95719.81
2023-02-24T23:12:15.251Z,95731.84
2023-02-24T23:14:21.059Z,95743.09
2023-02-24T23:16:27.365Z,95745.69
2023-02-24T23:18:32.513Z,95745.50
2023-02-24T23:20:38.768Z,95743.91
2023-02-24T23:22:45.436Z,95749.31
2023-02-24T23:24:50.822Z,95735.25
2023-02-24T23:27:01.463Z,95741.84
2023-02-24T23:29:09.044Z,95742.66
2023-02-24T23:31:22.189Z,95752.28
2023-02-24T23:33:26.283Z,95746.31
2023-02-24T23:35:30.400Z,95725.22
2023-02-24T23:37:34.559Z,95722.41
2023-02-24T23:39:38.826Z,95727.00
2023-02-24T23:41:43.454Z,95730.59
2023-02-24T23:43:47.675Z,95730.78
2023-02-24T23:45:51.745Z,95729.13
2023-02-24T23:47:58.496Z,95733.72
2023-02-24T23:50:02.488Z,95752.06
2023-02-24T23:52:06.516Z,95759.63
2023-02-24T23:54:12.983Z,95759.25
2023-02-24T23:56:18.366Z,95749.06
2023-02-24T23:58:22.325Z,95747.63
